createdAt,value
2022-11-30T00:00:31.812Z,7.71
2022-11-30T00:03:22.752Z,7.72
2022-11-30T00:06:15.142Z,7.65
2022-11-30T00:09:04.572Z,7.61
2022-11-30T00:11:53.873Z,7.63
2022-11-30T00:14:43.210Z,7.65
2022-11-30T00:17:32.559Z,7.66
2022-11-30T00:20:23.263Z,7.63
2022-11-30T00:23:12.786Z,7.64
2022-11-30T00:26:03.465Z,7.63
2022-11-30T00:28:52.764Z,7.61
2022-11-30T00:31:42.212Z,7.61
2022-11-30T00:34:31.492Z,7.61
2022-11-30T00:37:23.183Z,7.55
2022-11-30T00:40:14.281Z,7.57
2022-11-30T00:43:03.796Z,7.49
2022-11-30T00:45:53.126Z,7.50
2022-11-30T00:48:43.311Z,7.48
2022-11-30T00:51:32.619Z,7.53
2022-11-30T00:54:24.234Z,7.56
2022-11-30T00:57:13.562Z,7.55
2022-11-30T01:00:02.835Z,7.54
2022-11-30T01:02:55.781Z,7.59
2022-11-30T01:05:45.163Z,7.60
2022-11-30T01:08:34.943Z,7.60
2022-11-30T01:11:28.275Z,7.57
2022-11-30T01:14:17.530Z,7.57
2022-11-30T01:17:06.949Z,7.51
2022-11-30T01:19:56.306Z,7.51
2022-11-30T01:22:46.637Z,7.46
2022-11-30T01:25:38.008Z,7.40
2022-11-30T01:28:28.918Z,7.36
2022-11-30T01:31:19.177Z,7.26
2022-11-30T01:34:08.695Z,7.24
2022-11-30T01:36:58.062Z,7.17
2022-11-30T01:39:47.511Z,7.14
2022-11-30T01:42:38.093Z,7.11
2022-11-30T01:45:28.883Z,7.05
2022-11-30T01:48:18.255Z,6.98
2022-11-30T01:51:07.751Z,7.00
2022-11-30T01:53:57.091Z,6.94
2022-11-30T01:56:50.352Z,6.90
2022-11-30T01:59:39.949Z,6.89
2022-11-30T02:02:52.937Z,6.89
2022-11-30T02:05:42.883Z,6.86
2022-11-30T02:08:33.959Z,6.90
2022-11-30T02:11:24.800Z,6.96
2022-11-30T02:14:30.689Z,6.95
2022-11-30T02:17:29.618Z,6.91
2022-11-30T02:20:48.403Z,6.94
2022-11-30T02:24:07.737Z,6.91
2022-11-30T02:27:13.362Z,6.88
2022-11-30T02:30:08.604Z,6.79
2022-11-30T02:33:02.558Z,6.76
2022-11-30T02:35:55.552Z,6.76
2022-11-30T02:38:45.144Z,6.72
2022-11-30T02:41:39.785Z,6.71
2022-11-30T02:44:30.518Z,6.70
2022-11-30T02:47:29.362Z,6.64
2022-11-30T02:50:25.235Z,6.59
2022-11-30T02:53:14.734Z,6.57
2022-11-30T02:56:05.070Z,6.55
2022-11-30T02:58:54.546Z,6.48
2022-11-30T03:01:43.876Z,6.47
2022-11-30T03:04:34.624Z,6.45
2022-11-30T03:07:23.892Z,6.40
2022-11-30T03:10:13.494Z,6.36
2022-11-30T03:13:02.886Z,6.34
2022-11-30T03:15:52.338Z,6.29
2022-11-30T03:18:42.161Z,6.33
2022-11-30T03:21:33.084Z,6.34
2022-11-30T03:24:22.426Z,6.36
2022-11-30T03:27:11.818Z,6.35
2022-11-30T03:30:01.128Z,6.50
2022-11-30T03:32:52.029Z,6.58
2022-11-30T03:35:41.310Z,6.67
2022-11-30T03:38:32.427Z,6.73
2022-11-30T03:41:21.771Z,6.81
2022-11-30T03:44:12.019Z,6.83
2022-11-30T03:47:01.285Z,6.92
2022-11-30T03:49:50.551Z,6.94
2022-11-30T03:52:39.816Z,7.12
2022-11-30T03:55:30.474Z,7.34
2022-11-30T03:58:19.706Z,7.50
2022-11-30T04:01:12.438Z,7.62
2022-11-30T04:04:01.708Z,7.65
2022-11-30T04:06:51.073Z,7.66
2022-11-30T04:09:40.383Z,7.60
2022-11-30T04:12:31.315Z,7.55
2022-11-30T04:15:20.634Z,7.52
2022-11-30T04:18:09.908Z,7.44
2022-11-30T04:21:01.393Z,7.36
2022-11-30T04:23:50.659Z,7.27
2022-11-30T04:26:39.956Z,7.19
2022-11-30T04:29:30.584Z,7.11
2022-11-30T04:32:19.865Z,7.06
2022-11-30T04:35:11.500Z,7.03
2022-11-30T04:38:01.283Z,7.09
2022-11-30T04:40:50.571Z,7.31
2022-11-30T04:43:39.974Z,7.49
2022-11-30T04:46:30.770Z,7.66
2022-11-30T04:49:20.204Z,7.79
2022-11-30T04:52:09.438Z,7.95
2022-11-30T04:54:58.882Z,8.03
2022-11-30T04:57:48.515Z,8.15
2022-11-30T05:00:38.431Z,8.26
2022-11-30T05:03:29.254Z,8.29
2022-11-30T05:06:18.542Z,8.25
2022-11-30T05:09:07.846Z,8.28
2022-11-30T05:11:57.240Z,8.13
2022-11-30T05:14:46.905Z,8.11
2022-11-30T05:17:36.548Z,8.04
2022-11-30T05:20:27.228Z,7.96
2022-11-30T05:23:16.716Z,7.88
2022-11-30T05:26:06.482Z,7.77
2022-11-30T05:28:55.796Z,7.69
2022-11-30T05:31:45.132Z,7.61
2022-11-30T05:34:45.832Z,7.54
2022-11-30T05:37:41.072Z,7.46
2022-11-30T05:40:32.609Z,7.43
2022-11-30T05:43:21.915Z,7.37
2022-11-30T05:46:11.914Z,7.33
2022-11-30T05:49:01.417Z,7.45
2022-11-30T05:51:50.633Z,7.54
2022-11-30T05:54:41.390Z,7.65
2022-11-30T05:57:30.627Z,7.77
2022-11-30T06:00:21.846Z,7.88
2022-11-30T06:03:11.342Z,7.95
2022-11-30T06:06:00.754Z,7.98
2022-11-30T06:08:50.960Z,7.98
2022-11-30T06:11:41.754Z,8.12
2022-11-30T06:14:31.024Z,8.23
2022-11-30T06:17:20.272Z,8.34
2022-11-30T06:20:10.783Z,8.45
2022-11-30T06:23:00.185Z,8.58
2022-11-30T06:25:49.487Z,8.72
2022-11-30T06:28:45.348Z,8.82
2022-11-30T06:31:37.142Z,8.91
2022-11-30T06:34:26.358Z,8.99
2022-11-30T06:37:15.667Z,9.05
2022-11-30T06:40:07.286Z,9.09
2022-11-30T06:42:57.229Z,9.16
2022-11-30T06:45:48.431Z,9.19
2022-11-30T06:48:37.994Z,9.15
2022-11-30T06:51:27.369Z,9.16
2022-11-30T06:54:16.913Z,9.07
2022-11-30T06:57:06.350Z,8.97
2022-11-30T06:59:55.735Z,8.93
2022-11-30T07:02:46.430Z,8.88
2022-11-30T07:05:40.816Z,8.85
2022-11-30T07:08:30.081Z,8.79
2022-11-30T07:11:19.395Z,8.79
2022-11-30T07:14:08.783Z,8.79
2022-11-30T07:16:58.327Z,8.75
2022-11-30T07:19:49.113Z,8.79
2022-11-30T07:22:38.397Z,8.79
2022-11-30T07:25:44.840Z,8.77
2022-11-30T07:28:34.270Z,8.76
2022-11-30T07:31:26.455Z,8.72
2022-11-30T07:34:15.759Z,8.71
2022-11-30T07:37:06.370Z,8.62
2022-11-30T07:39:55.935Z,8.53
2022-11-30T07:42:45.188Z,8.42
2022-11-30T07:45:34.601Z,8.27
2022-11-30T07:48:24.349Z,8.16
2022-11-30T07:51:16.289Z,8.03
2022-11-30T07:54:07.629Z,7.93
2022-11-30T07:56:56.882Z,7.89
2022-11-30T07:59:46.507Z,7.82
2022-11-30T08:02:35.889Z,7.74
2022-11-30T08:05:25.221Z,7.69
2022-11-30T08:08:14.557Z,7.63
2022-11-30T08:11:06.489Z,7.60
2022-11-30T08:13:56.239Z,7.64
2022-11-30T08:16:45.545Z,7.61
2022-11-30T08:19:34.867Z,7.73
2022-11-30T08:22:24.198Z,7.83
2022-11-30T08:25:13.477Z,7.92
2022-11-30T08:28:04.385Z,8.01
2022-11-30T08:30:53.681Z,8.13
2022-11-30T08:33:43.480Z,8.21
2022-11-30T08:36:33.764Z,8.23
2022-11-30T08:39:23.250Z,8.31
2022-11-30T08:42:12.516Z,8.34
2022-11-30T08:45:03.501Z,8.17
2022-11-30T08:47:52.872Z,8.39
2022-11-30T08:50:42.365Z,8.41
2022-11-30T08:53:31.948Z,8.45
2022-11-30T08:56:23.939Z,8.51
2022-11-30T08:59:13.195Z,8.58
2022-11-30T09:02:04.166Z,8.63
2022-11-30T09:04:53.721Z,8.74
2022-11-30T09:07:43.014Z,8.86
2022-11-30T09:10:32.318Z,8.93
2022-11-30T09:13:21.665Z,9.02
2022-11-30T09:16:12.673Z,9.05
2022-11-30T09:19:03.611Z,9.13
2022-11-30T09:21:53.089Z,9.20
2022-11-30T09:24:42.734Z,9.23
2022-11-30T09:27:34.195Z,9.32
2022-11-30T09:30:23.960Z,9.37
2022-11-30T09:33:13.233Z,9.37
2022-11-30T09:36:06.246Z,9.42
2022-11-30T09:38:56.159Z,9.50
2022-11-30T09:42:39.599Z,9.61
2022-11-30T09:45:32.860Z,9.69
2022-11-30T09:48:43.215Z,9.77
2022-11-30T09:51:45.635Z,9.83
2022-11-30T09:54:40.537Z,9.92
2022-11-30T09:57:36.267Z,10.03
2022-11-30T10:00:26.794Z,10.20
2022-11-30T10:03:16.319Z,10.31
2022-11-30T10:06:11.274Z,10.44
2022-11-30T10:09:29.155Z,10.55
2022-11-30T10:12:26.581Z,10.64
2022-11-30T10:15:42.109Z,10.75
2022-11-30T10:18:42.391Z,10.83
2022-11-30T10:21:52.548Z,10.85
2022-11-30T10:25:08.624Z,10.93
2022-11-30T10:28:38.642Z,10.91
2022-11-30T10:31:21.272Z,11.09
2022-11-30T10:34:22.214Z,11.14
2022-11-30T10:37:18.603Z,11.18
2022-11-30T10:40:18.752Z,11.30
2022-11-30T10:43:20.331Z,11.34
2022-11-30T10:46:22.086Z,11.43
2022-11-30T10:49:20.631Z,11.45
2022-11-30T10:52:13.812Z,11.48
2022-11-30T10:55:05.048Z,11.52
2022-11-30T10:58:03.840Z,11.54
2022-11-30T11:01:03.672Z,11.55
2022-11-30T11:04:15.833Z,11.55
2022-11-30T11:07:15.300Z,11.65
2022-11-30T11:10:05.253Z,11.69
2022-11-30T11:12:57.137Z,11.69
2022-11-30T11:16:00.007Z,11.76
2022-11-30T11:18:56.065Z,11.79
2022-11-30T11:21:49.414Z,11.81
2022-11-30T11:24:38.725Z,11.87
2022-11-30T11:27:31.947Z,11.87
2022-11-30T11:30:32.249Z,11.90
2022-11-30T11:33:25.050Z,11.95
2022-11-30T11:36:26.815Z,11.98
2022-11-30T11:39:28.316Z,11.98
2022-11-30T11:42:22.662Z,12.00
2022-11-30T11:45:19.400Z,12.00
2022-11-30T11:48:34.851Z,12.00
2022-11-30T11:51:32.937Z,11.97
2022-11-30T11:54:28.654Z,12.00
2022-11-30T11:57:21.241Z,11.99
2022-11-30T12:00:19.804Z,11.93
2022-11-30T12:03:20.852Z,11.98
2022-11-30T12:06:15.555Z,11.99
2022-11-30T12:09:13.771Z,11.99
2022-11-30T12:12:03.210Z,11.97
2022-11-30T12:14:52.530Z,11.95
2022-11-30T12:17:54.858Z,11.95
2022-11-30T12:20:55.875Z,11.99
2022-11-30T12:24:06.395Z,12.01
2022-11-30T12:27:04.312Z,12.07
2022-11-30T12:30:09.997Z,12.07
2022-11-30T12:33:27.625Z,12.14
2022-11-30T12:36:30.542Z,12.16
2022-11-30T12:39:31.424Z,12.21
2022-11-30T12:42:31.380Z,12.25
2022-11-30T12:45:30.279Z,12.32
2022-11-30T12:48:32.803Z,12.38
2022-11-30T12:51:34.133Z,12.42
2022-11-30T12:54:33.921Z,12.43
2022-11-30T12:57:28.378Z,12.48
2022-11-30T13:00:22.596Z,12.55
2022-11-30T13:03:48.045Z,12.63
2022-11-30T13:06:45.215Z,12.80
2022-11-30T13:09:39.618Z,13.02
2022-11-30T13:12:36.366Z,13.15
2022-11-30T13:15:29.538Z,13.38
2022-11-30T13:18:22.005Z,13.52
2022-11-30T13:21:23.047Z,13.61
2022-11-30T13:24:22.656Z,13.69
2022-11-30T13:27:21.373Z,13.71
2022-11-30T13:30:28.227Z,13.71
2022-11-30T13:33:50.283Z,13.72
2022-11-30T13:36:41.417Z,13.75
2022-11-30T13:39:45.839Z,13.73
2022-11-30T13:42:44.980Z,13.67
2022-11-30T13:45:38.759Z,13.51
2022-11-30T13:48:34.997Z,13.50
2022-11-30T13:51:39.758Z,13.44
2022-11-30T13:54:42.403Z,13.43
2022-11-30T13:58:10.354Z,13.39
2022-11-30T14:01:28.309Z,13.35
2022-11-30T14:04:34.587Z,13.35
2022-11-30T14:07:37.944Z,13.31
2022-11-30T14:10:32.742Z,13.28
2022-11-30T14:13:32.675Z,13.22
2022-11-30T14:16:27.480Z,13.17
2022-11-30T14:19:17.059Z,13.18
2022-11-30T14:22:12.072Z,13.13
2022-11-30T14:25:02.801Z,13.11
2022-11-30T14:27:59.016Z,13.07
2022-11-30T14:30:49.775Z,13.03
2022-11-30T14:33:49.598Z,12.98
2022-11-30T14:36:46.368Z,12.88
2022-11-30T14:39:39.137Z,12.88
2022-11-30T14:42:31.150Z,12.86
2022-11-30T14:45:25.607Z,12.83
2022-11-30T14:48:17.898Z,12.82
2022-11-30T14:51:07.430Z,12.80
2022-11-30T14:54:06.497Z,12.76
2022-11-30T14:57:03.920Z,12.76
2022-11-30T14:59:55.514Z,12.72
2022-11-30T15:02:47.056Z,12.63
2022-11-30T15:05:36.768Z,12.68
2022-11-30T15:08:33.945Z,12.65
2022-11-30T15:11:24.101Z,12.65
2022-11-30T15:14:13.633Z,12.63
2022-11-30T15:17:02.976Z,12.64
2022-11-30T15:19:54.547Z,12.64
2022-11-30T15:22:43.793Z,12.63
2022-11-30T15:25:39.352Z,12.63
2022-11-30T15:28:35.243Z,12.61
2022-11-30T15:31:25.620Z,12.61
2022-11-30T15:34:21.745Z,12.56
2022-11-30T15:37:12.858Z,12.59
2022-11-30T15:40:07.256Z,12.52
2022-11-30T15:42:56.936Z,12.52
2022-11-30T15:45:55.923Z,12.53
2022-11-30T15:48:49.127Z,12.52
2022-11-30T15:51:39.590Z,12.51
2022-11-30T15:54:48.304Z,12.48
2022-11-30T15:58:00.834Z,12.44
2022-11-30T16:01:14.539Z,12.45
2022-11-30T16:04:08.103Z,12.42
2022-11-30T16:06:57.690Z,12.41
2022-11-30T16:09:48.600Z,12.36
2022-11-30T16:12:38.295Z,12.38
2022-11-30T16:15:30.637Z,12.34
2022-11-30T16:18:24.473Z,12.29
2022-11-30T16:21:17.038Z,12.32
2022-11-30T16:24:07.390Z,12.30
2022-11-30T16:26:58.045Z,12.29
2022-11-30T16:29:52.297Z,12.25
2022-11-30T16:32:41.888Z,12.26
2022-11-30T16:35:38.552Z,12.21
2022-11-30T16:38:28.986Z,12.24
2022-11-30T16:41:21.241Z,12.19
2022-11-30T16:44:15.229Z,12.21
2022-11-30T16:47:04.472Z,12.22
2022-11-30T16:49:53.877Z,12.14
2022-11-30T16:52:44.564Z,12.19
2022-11-30T16:55:37.902Z,12.19
2022-11-30T16:58:27.237Z,12.21
2022-11-30T17:01:22.636Z,12.18
2022-11-30T17:04:17.936Z,12.20
2022-11-30T17:07:07.273Z,12.21
2022-11-30T17:09:56.868Z,12.20
2022-11-30T17:12:46.266Z,12.17
2022-11-30T17:15:35.584Z,12.19
2022-11-30T17:18:26.364Z,12.14
2022-11-30T17:21:20.573Z,12.15
2022-11-30T17:24:10.207Z,12.16
2022-11-30T17:27:00.048Z,12.18
2022-11-30T17:29:49.436Z,12.16
2022-11-30T17:32:38.703Z,12.14
2022-11-30T17:35:29.354Z,12.15
2022-11-30T17:38:18.881Z,12.15
2022-11-30T17:41:12.992Z,12.15
2022-11-30T17:44:05.065Z,12.11
2022-11-30T17:46:54.396Z,12.13
2022-11-30T17:49:43.974Z,12.12
2022-11-30T17:52:34.889Z,12.10
2022-11-30T17:55:24.168Z,12.09
2022-11-30T17:58:13.462Z,12.11
2022-11-30T18:01:02.838Z,12.09
2022-11-30T18:03:53.127Z,12.13
2022-11-30T18:06:42.639Z,12.11
2022-11-30T18:09:37.965Z,12.16
2022-11-30T18:12:30.258Z,12.15
2022-11-30T18:15:19.948Z,12.15
2022-11-30T18:18:09.236Z,12.16
2022-11-30T18:21:05.635Z,12.19
2022-11-30T18:23:55.276Z,12.19
2022-11-30T18:26:46.007Z,12.19
2022-11-30T18:29:35.409Z,12.19
2022-11-30T18:32:24.671Z,12.16
2022-11-30T18:35:13.989Z,12.15
2022-11-30T18:38:03.236Z,12.16
2022-11-30T18:40:52.754Z,12.14
2022-11-30T18:43:43.429Z,12.10
2022-11-30T18:46:32.774Z,12.09
2022-11-30T18:49:23.654Z,12.04
2022-11-30T18:52:12.895Z,12.02
2022-11-30T18:55:02.144Z,12.00
2022-11-30T18:57:51.724Z,12.00
2022-11-30T19:00:42.541Z,11.99
2022-11-30T19:03:31.823Z,11.99
2022-11-30T19:06:21.518Z,11.95
2022-11-30T19:09:15.033Z,11.98
2022-11-30T19:12:04.416Z,12.00
2022-11-30T19:14:54.254Z,12.01
2022-11-30T19:17:44.893Z,12.01
2022-11-30T19:20:40.342Z,12.06
2022-11-30T19:23:29.796Z,12.07
2022-11-30T19:26:19.393Z,12.09
2022-11-30T19:29:09.411Z,12.05
2022-11-30T19:31:58.764Z,12.07
2022-11-30T19:34:50.106Z,12.11
2022-11-30T19:37:40.245Z,12.08
2022-11-30T19:40:29.619Z,12.06
2022-11-30T19:43:18.953Z,12.07
2022-11-30T19:46:10.000Z,12.07
2022-11-30T19:49:01.986Z,12.05
2022-11-30T19:51:52.814Z,12.09
2022-11-30T19:54:42.197Z,12.08
2022-11-30T19:57:31.774Z,12.04
2022-11-30T20:00:21.810Z,12.06
2022-11-30T20:03:12.149Z,12.04
2022-11-30T20:06:01.613Z,12.03
2022-11-30T20:08:52.638Z,12.04
2022-11-30T20:11:42.133Z,12.04
2022-11-30T20:14:31.464Z,12.07
2022-11-30T20:17:20.759Z,12.08
2022-11-30T20:20:11.931Z,12.08
2022-11-30T20:23:01.303Z,12.10
2022-11-30T20:25:51.993Z,12.11
2022-11-30T20:28:41.879Z,12.11
2022-11-30T20:31:34.513Z,12.08
2022-11-30T20:34:27.479Z,12.09
2022-11-30T20:37:20.714Z,12.09
2022-11-30T20:40:12.315Z,12.10
2022-11-30T20:43:03.038Z,12.09
2022-11-30T20:45:52.423Z,12.09
2022-11-30T20:48:41.936Z,12.09
2022-11-30T20:51:33.653Z,12.09
2022-11-30T20:54:23.445Z,12.08
2022-11-30T20:57:12.734Z,12.07
2022-11-30T21:00:08.809Z,12.08
2022-11-30T21:03:01.132Z,12.10
2022-11-30T21:05:51.240Z,12.08
2022-11-30T21:08:42.481Z,12.02
2022-11-30T21:11:32.716Z,12.01
2022-11-30T21:14:22.256Z,12.07
2022-11-30T21:17:13.001Z,12.06
2022-11-30T21:20:02.285Z,12.09
2022-11-30T21:22:53.846Z,12.10
2022-11-30T21:25:45.790Z,12.11
2022-11-30T21:28:38.272Z,12.08
2022-11-30T21:31:27.957Z,12.10
2022-11-30T21:34:18.704Z,12.02
2022-11-30T21:37:07.967Z,12.09
2022-11-30T21:39:57.294Z,12.09
2022-11-30T21:42:46.568Z,12.08
2022-11-30T21:45:36.356Z,12.02
2022-11-30T21:48:25.689Z,12.06
2022-11-30T21:51:21.679Z,12.05
2022-11-30T21:54:14.362Z,12.03
2022-11-30T21:57:03.788Z,12.08
2022-11-30T21:59:53.329Z,12.07
2022-11-30T22:02:42.742Z,12.07
2022-11-30T22:05:32.095Z,12.06
2022-11-30T22:08:22.846Z,12.06
2022-11-30T22:11:14.572Z,12.04
2022-11-30T22:14:04.945Z,12.03
2022-11-30T22:16:54.423Z,12.05
2022-11-30T22:19:43.850Z,12.01
2022-11-30T22:22:33.380Z,12.04
2022-11-30T22:25:24.612Z,12.00
2022-11-30T22:28:14.174Z,12.01
2022-11-30T22:31:05.043Z,11.96
2022-11-30T22:33:54.658Z,11.98
2022-11-30T22:36:45.501Z,11.95
2022-11-30T22:39:34.887Z,11.97
2022-11-30T22:42:25.545Z,11.97
2022-11-30T22:45:14.818Z,11.97
2022-11-30T22:48:04.106Z,11.94
2022-11-30T22:50:53.345Z,11.86
2022-11-30T22:53:44.223Z,11.86
2022-11-30T22:56:35.549Z,11.81
2022-11-30T22:59:26.710Z,11.78
2022-11-30T23:02:16.085Z,11.75
2022-11-30T23:05:06.367Z,11.74
2022-11-30T23:07:56.105Z,11.67
2022-11-30T23:10:45.602Z,11.77
2022-11-30T23:13:35.441Z,11.80
2022-11-30T23:16:26.320Z,11.67
2022-11-30T23:19:16.465Z,11.76
2022-11-30T23:22:05.884Z,11.72
2022-11-30T23:24:56.089Z,11.59
2022-11-30T23:27:45.783Z,11.59
2022-11-30T23:30:35.200Z,11.58
2022-11-30T23:33:26.407Z,11.58
2022-11-30T23:36:18.506Z,11.54
2022-11-30T23:39:10.816Z,11.50
2022-11-30T23:42:00.034Z,11.49
2022-11-30T23:44:49.360Z,11.47
2022-11-30T23:47:38.627Z,11.45
2022-11-30T23:50:29.805Z,11.37
2022-11-30T23:53:19.196Z,11.28
2022-11-30T23:56:10.798Z,11.22
2022-11-30T23:59:00.331Z,11.17
